Airfield :
LOGIN :

Register | Disclaimer

   EN    FR    IT 

 










Legend :    VFR   Marginal VFR   IFR   Intensive IFR   Very Intensive IFR
Visi :
Ceiling :
>= 8 km
>= 3000ft
5 to 8 km
1000 to 3000 ft
1500m to 5 km
500 to 1000 ft
800 to 1500m
200 to 500 ft
< 800m
< 200 ft
Symbols :   Thunderstorms  Fog  Heavy snow  Heavy precipitations  Wind > 20 kt
SIGMETs :     Misc.  Thunderstorms  Icing  Turbulence  Mountain Waves  Volcanic Ashes






- Airport Elevation : 353 ft
- IATA code : LIN


LIML - Milano Linate

CURRENT METAR :
  • 192250Z VRB02KT 4000 -DZ FEW005 BKN010 OVC020 09/08 Q1016 NOSIG

EXPIRED METARs :
  • 192220Z 22002KT 4000 -DZ SCT003 BKN010 OVC020 09/09 Q1016 NOSIG
  • 192150Z VRB02KT 4000 -RA BR BKN003 OVC020 09/09 Q1016 NOSIG
  • 192120Z VRB01KT 6000 -RA FEW007 BKN015 OVC050 09/09 Q1016 NOSIG
  • 192050Z VRB02KT 7000 -RA FEW007 BKN020 OVC050 09/09 Q1016 NOSIG
  • 192020Z 26002KT 7000 -RA FEW007 BKN020 OVC050 09/09 Q1016 NOSIG

TAF TAF LIML
Valid from the 19 at 18:00 until the 20 at 18:00 UTC


191700Z 1918/2018 VRB05KT 6000 DZ BKN012 BKN050
BECMG 2002/2004 2500 BR
TEMPO 2004/2007 1200 BCFG
BECMG 2007/2010 7000 SCT025 BKN060



MET'MAP, your aeronautical weather chart ! - Copyright ORBIFLY December 2007 - Disclaimer

ORBIFLY MET'MAP TEAM :

Programming & Development : Alexandra Zaïnal
Concept & Development : Baudouin d'Aumeries
Co-Development & Prog : Marc-Olivier Méhu
Technical & hardware support : Manuel Goepfert

Contact : metmap@orbifly.com




SOURCES & CREDITS :

   NOAA